Time;durP1;ratioP1;P1;durP2;ratioP2;P2;SDS_P1;SDS_P2;PMS_P1;PMS_P2;Temp;Humidity;BMP_temperature;BMP_pressure;BME280_temperature;BME280_humidity;BME280_pressure;Samples;Min_cycle;Max_cycle;Signal;HPM_P1;HPM_P2
2022/09/19 00:01:21;;;;;;;5.82;1.70;;;;;;;7.53;100.00;95263.78;5040632;28;20120;-75
2022/09/19 00:04:13;;;;;;;4.57;2.10;;;;;;;7.57;100.00;95259.63;5037372;28;20041;-76
2022/09/19 00:06:41;;;;;;;3.95;1.90;;;;;;;7.58;100.00;95261.22;5036569;28;20057;-77
2022/09/19 00:09:10;;;;;;;5.63;2.40;;;;;;;7.52;100.00;95262.25;5031751;28;20069;-77
2022/09/19 00:11:39;;;;;;;6.90;1.98;;;;;;;7.51;100.00;95268.50;5042951;28;20041;-77
2022/09/19 00:14:04;;;;;;;4.93;1.55;;;;;;;7.53;100.00;95253.31;5044849;28;20040;-77
2022/09/19 00:16:33;;;;;;;5.15;2.00;;;;;;;7.53;100.00;95248.09;5047403;28;20426;-77
2022/09/19 00:19:01;;;;;;;4.82;1.67;;;;;;;7.44;100.00;95256.44;5046754;28;20211;-77
2022/09/19 00:21:32;;;;;;;4.93;2.28;;;;;;;7.44;100.00;95251.22;5049551;28;20048;-76
2022/09/19 00:26:45;;;;;;;5.35;2.35;;;;;;;7.44;100.00;95251.22;5049654;28;20349;-77
2022/09/19 00:29:13;;;;;;;2.85;1.95;;;;;;;7.45;100.00;95258.00;5048467;28;20037;-76
2022/09/19 00:31:38;;;;;;;4.18;2.00;;;;;;;7.43;100.00;95260.09;5039064;28;20045;-77
2022/09/19 00:34:09;;;;;;;5.05;1.90;;;;;;;7.34;100.00;95266.88;5040869;28;20049;-76
2022/09/19 00:36:36;;;;;;;7.00;2.53;;;;;;;7.27;100.00;95255.84;5039939;28;20052;-77
2022/09/19 00:39:04;;;;;;;3.20;2.22;;;;;;;7.30;100.00;95263.19;5048939;28;20095;-78
2022/09/19 00:41:30;;;;;;;5.45;2.17;;;;;;;7.33;100.00;95265.28;5036601;28;20120;-78
2022/09/19 00:44:05;;;;;;;4.78;2.25;;;;;;;7.29;100.00;95264.22;5035286;28;20076;-77
2022/09/19 00:46:34;;;;;;;2.63;1.70;;;;;;;7.33;100.00;95265.28;5046639;28;20065;-77
2022/09/19 00:49:19;;;;;;;4.03;2.17;;;;;;;7.29;100.00;95269.47;5038459;28;20045;-77
2022/09/19 00:51:50;;;;;;;5.47;2.15;;;;;;;7.29;100.00;95265.00;5044384;28;20046;-77
2022/09/19 00:54:21;;;;;;;5.75;2.28;;;;;;;7.27;100.00;95266.31;5045743;28;20041;-78
2022/09/19 00:56:51;;;;;;;3.05;2.05;;;;;;;7.32;100.00;95271.56;5049660;28;20099;-77
2022/09/19 00:59:19;;;;;;;5.10;2.25;;;;;;;7.26;100.00;95278.59;5042313;28;20495;-77
2022/09/19 01:01:46;;;;;;;5.18;2.40;;;;;;;7.26;100.00;95272.59;5034928;28;20530;-78
2022/09/19 01:04:18;;;;;;;6.90;2.75;;;;;;;7.24;100.00;95274.66;5042049;28;20041;-76
2022/09/19 01:07:18;;;;;;;5.78;2.50;;;;;;;7.20;100.00;95276.22;5047393;28;20589;-77
2022/09/19 01:10:16;;;;;;;4.68;2.08;;;;;;;7.24;100.00;95272.03;5046667;28;20567;-76
2022/09/19 01:13:09;;;;;;;4.03;1.90;;;;;;;7.21;100.00;95272.53;5040564;28;20056;-77
2022/09/19 01:15:47;;;;;;;3.67;1.95;;;;;;;7.08;100.00;95269.34;5044152;28;20044;-76
2022/09/19 01:18:13;;;;;;;3.05;1.70;;;;;;;7.19;100.00;95264.16;5047601;28;20044;-77
2022/09/19 01:20:57;;;;;;;7.00;2.20;;;;;;;7.11;100.00;95268.03;5041866;28;20138;-77
2022/09/19 01:23:45;;;;;;;3.50;2.25;;;;;;;7.02;100.00;95265.09;5033121;28;20041;-78
2022/09/19 01:26:31;;;;;;;6.53;2.65;;;;;;;7.14;100.00;95269.38;5047119;28;20041;-78
2022/09/19 01:29:09;;;;;;;3.75;2.30;;;;;;;7.10;100.00;95267.25;5034558;28;20038;-78
2022/09/19 01:31:39;;;;;;;7.60;2.38;;;;;;;7.13;100.00;95273.03;5034798;28;20045;-76
2022/09/19 01:34:21;;;;;;;4.55;2.25;;;;;;;7.20;100.00;95268.38;5049501;28;20037;-78
2022/09/19 01:36:58;;;;;;;4.68;2.70;;;;;;;7.13;100.00;95270.44;5048360;28;20063;-77
2022/09/19 01:39:25;;;;;;;5.32;2.17;;;;;;;7.17;100.00;95281.94;5037389;28;20045;-77
2022/09/19 01:41:53;;;;;;;4.03;1.85;;;;;;;7.09;100.00;95293.69;5047361;28;20073;-77
2022/09/19 01:44:22;;;;;;;4.60;1.90;;;;;;;6.80;100.00;95308.91;5047051;28;20049;-77
2022/09/19 01:46:52;;;;;;;2.45;1.25;;;;;;;6.59;100.00;95313.97;5050208;28;20053;-78
2022/09/19 01:49:30;;;;;;;3.25;1.23;;;;;;;6.59;100.00;95324.41;5041514;28;20446;-77
2022/09/19 01:52:16;;;;;;;2.45;1.20;;;;;;;6.46;100.00;95319.59;5043211;28;20046;-77
2022/09/19 01:54:57;;;;;;;0.85;0.70;;;;;;;6.40;100.00;95316.94;5046460;28;20473;-77
2022/09/19 01:57:58;;;;;;;0.98;0.80;;;;;;;6.23;100.00;95321.47;5049940;28;20214;-76
2022/09/19 02:00:24;;;;;;;1.25;0.52;;;;;;;6.31;100.00;95318.41;5002945;28;20423;-77
2022/09/19 02:03:36;;;;;;;2.92;0.77;;;;;;;6.08;100.00;95319.50;5047129;28;20044;-77
2022/09/19 02:06:27;;;;;;;0.68;0.68;;;;;;;6.12;100.00;95319.78;4999137;28;20057;-76
2022/09/19 02:09:06;;;;;;;1.80;1.00;;;;;;;6.21;100.00;95334.78;5043482;28;20611;-77
2022/09/19 02:11:31;;;;;;;0.70;0.57;;;;;;;6.14;100.00;95334.19;5046371;28;20052;-77
2022/09/19 02:14:10;;;;;;;0.52;0.52;;;;;;;6.13;100.00;95326.59;5043293;28;20099;-77
2022/09/19 02:16:47;;;;;;;1.35;0.70;;;;;;;6.13;100.00;95331.81;5042654;28;20379;-78
2022/09/19 02:19:19;;;;;;;0.85;0.73;;;;;;;6.06;100.00;95337.22;5034095;28;20025;-78
2022/09/19 02:21:52;;;;;;;1.00;0.88;;;;;;;6.08;100.00;95343.00;5047419;28;20120;-78
2022/09/19 02:24:27;;;;;;;1.02;0.80;;;;;;;6.12;100.00;95341.50;5033695;28;20045;-78
2022/09/19 02:26:57;;;;;;;1.17;0.85;;;;;;;6.17;100.00;95348.59;5035685;28;20061;-78
2022/09/19 02:29:30;;;;;;;0.80;0.80;;;;;;;6.15;100.00;95334.97;5039204;28;20519;-78
2022/09/19 02:31:56;;;;;;;1.35;1.00;;;;;;;6.10;100.00;95340.16;5045199;28;20068;-77
2022/09/19 02:34:22;;;;;;;3.15;1.23;;;;;;;6.14;100.00;95339.41;5040784;28;20038;-77
2022/09/19 02:37:03;;;;;;;1.10;1.00;;;;;;;6.14;100.00;95349.09;5044436;28;20047;-78
2022/09/19 02:39:36;;;;;;;0.85;0.85;;;;;;;6.04;100.00;95355.75;5043064;28;20041;-78
2022/09/19 02:42:28;;;;;;;1.20;1.02;;;;;;;6.14;100.00;95359.53;5054674;28;20042;-78
2022/09/19 02:45:31;;;;;;;1.70;1.02;;;;;;;6.15;100.00;95355.88;5017938;28;20062;-77
2022/09/19 02:48:13;;;;;;;1.60;1.08;;;;;;;6.15;100.00;95366.31;5037342;28;20067;-78
2022/09/19 02:50:39;;;;;;;1.58;1.05;;;;;;;6.16;100.00;95368.72;5036305;28;20041;-78
2022/09/19 02:53:12;;;;;;;2.80;1.40;;;;;;;6.09;100.00;95367.31;5032335;28;20044;-78
2022/09/19 02:55:45;;;;;;;2.15;1.42;;;;;;;6.07;100.00;95376.16;5035379;28;20044;-77
2022/09/19 02:58:15;;;;;;;3.15;1.40;;;;;;;6.03;100.00;95374.28;5042772;28;20116;-78
2022/09/19 03:00:46;;;;;;;4.10;1.33;;;;;;;6.16;100.00;95378.34;5038582;28;20075;-76
2022/09/19 03:06:12;;;;;;;2.05;1.30;;;;;;;6.15;100.00;95389.84;5045564;28;20044;-77
2022/09/19 03:08:39;;;;;;;3.55;1.55;;;;;;;6.15;100.00;95397.66;5039122;28;20055;-76
2022/09/19 03:11:16;;;;;;;1.30;1.20;;;;;;;6.14;100.00;95393.50;5031255;28;20052;-76
2022/09/19 03:13:42;;;;;;;3.78;1.40;;;;;;;6.03;100.00;95392.56;5030201;28;20128;-77
2022/09/19 03:16:25;;;;;;;1.33;1.15;;;;;;;6.13;100.00;95394.53;5033455;28;20037;-77
2022/09/19 03:18:56;;;;;;;4.40;1.40;;;;;;;5.98;100.00;95395.91;5047768;28;20056;-77
2022/09/19 03:21:23;;;;;;;2.30;1.30;;;;;;;6.00;100.00;95388.63;5039247;28;20042;-77
2022/09/19 03:23:51;;;;;;;1.77;1.20;;;;;;;5.90;100.00;95385.84;5038975;28;20095;-77
2022/09/19 03:26:21;;;;;;;2.17;1.30;;;;;;;6.02;100.00;95397.03;5041025;28;20556;-77
2022/09/19 03:28:46;;;;;;;2.00;1.05;;;;;;;6.00;100.00;95391.22;5039829;28;20071;-77
2022/09/19 03:31:12;;;;;;;2.70;1.40;;;;;;;6.00;100.00;95395.69;5041251;28;20499;-76
2022/09/19 03:33:40;;;;;;;0.82;0.70;;;;;;;5.93;100.00;95401.03;5048832;28;20041;-77
2022/09/19 03:36:07;;;;;;;3.13;1.27;;;;;;;5.84;100.00;95402.50;5040617;28;20436;-77
2022/09/19 03:38:44;;;;;;;2.05;1.40;;;;;;;5.80;100.00;95411.84;5043015;28;20048;-77
2022/09/19 03:41:21;;;;;;;4.10;1.20;;;;;;;5.72;100.00;95405.22;5042696;28;20049;-78
2022/09/19 03:43:47;;;;;;;1.20;1.10;;;;;;;5.73;100.00;95407.59;5044121;28;20044;-78
2022/09/19 03:46:16;;;;;;;1.67;0.88;;;;;;;5.68;100.00;95412.72;5041004;28;20835;-77
2022/09/19 03:48:44;;;;;;;1.10;1.00;;;;;;;5.58;100.00;95425.66;5047042;28;20455;-77
2022/09/19 03:51:10;;;;;;;1.33;0.93;;;;;;;5.53;100.00;95428.19;5030813;28;20033;-78
2022/09/19 03:53:36;;;;;;;1.55;0.98;;;;;;;5.53;100.00;95428.19;5048117;28;20056;-78
2022/09/19 03:56:03;;;;;;;1.42;1.00;;;;;;;5.68;100.00;95438.84;5049189;28;20047;-78
2022/09/19 03:58:30;;;;;;;3.15;1.10;;;;;;;5.57;100.00;95433.72;5051068;28;20499;-77
2022/09/19 04:00:57;;;;;;;4.65;1.20;;;;;;;5.57;100.00;95439.72;5046631;28;20045;-77
2022/09/19 04:03:23;;;;;;;2.38;0.95;;;;;;;5.48;100.00;95446.38;5051276;28;20045;-78
2022/09/19 04:05:51;;;;;;;1.30;0.90;;;;;;;5.44;100.00;95456.50;5048770;28;20074;-77
2022/09/19 04:08:16;;;;;;;3.78;1.40;;;;;;;5.32;100.00;95451.38;5051058;28;20033;-77
2022/09/19 04:10:42;;;;;;;4.20;1.02;;;;;;;5.29;100.00;95459.66;5041717;28;20057;-78
2022/09/19 04:13:09;;;;;;;1.25;0.85;;;;;;;5.42;100.00;95473.44;5034954;28;20037;-78
2022/09/19 04:15:35;;;;;;;3.83;0.98;;;;;;;5.31;100.00;95468.03;5046563;28;20518;-77
2022/09/19 04:18:01;;;;;;;1.60;1.10;;;;;;;5.41;100.00;95471.84;5047675;28;20037;-77
2022/09/19 04:20:29;;;;;;;2.28;1.05;;;;;;;5.38;100.00;95476.50;5038389;28;20503;-76
2022/09/19 04:22:59;;;;;;;0.93;0.82;;;;;;;5.34;100.00;95472.81;5049570;28;20048;-76
2022/09/19 04:25:28;;;;;;;1.30;1.00;;;;;;;5.34;100.00;95485.84;5041395;28;20528;-77
2022/09/19 04:27:54;;;;;;;5.78;0.98;;;;;;;5.31;100.00;95473.25;5039445;28;20050;-77
2022/09/19 04:30:24;;;;;;;1.88;0.98;;;;;;;5.19;100.00;95469.94;5034165;28;20044;-77
2022/09/19 04:32:50;;;;;;;3.70;1.13;;;;;;;5.18;100.00;95473.56;5042554;28;20049;-78
2022/09/19 04:35:15;;;;;;;1.92;1.30;;;;;;;5.19;100.00;95480.38;5050989;28;20053;-78
2022/09/19 04:37:41;;;;;;;4.70;1.33;;;;;;;5.13;100.00;95481.31;5046831;28;20045;-78
2022/09/19 04:40:07;;;;;;;2.55;1.20;;;;;;;5.10;100.00;95490.41;5041440;28;20060;-78
2022/09/19 04:42:34;;;;;;;2.05;1.10;;;;;;;5.27;100.00;95497.47;5046835;28;20048;-78
2022/09/19 04:45:00;;;;;;;1.70;0.98;;;;;;;5.18;100.00;95497.06;5038100;28;20059;-78
2022/09/19 04:47:25;;;;;;;5.70;1.52;;;;;;;5.21;100.00;95493.97;5047349;28;20507;-77
2022/09/19 04:49:50;;;;;;;3.47;1.25;;;;;;;5.26;100.00;95496.69;5046659;28;20041;-76
2022/09/19 04:52:16;;;;;;;1.52;1.00;;;;;;;5.20;100.00;95498.41;5036211;28;20037;-77
2022/09/19 04:54:42;;;;;;;4.10;1.20;;;;;;;5.16;100.00;95499.13;5047827;28;20041;-77
2022/09/19 04:57:09;;;;;;;3.40;0.98;;;;;;;5.11;100.00;95505.00;5037207;28;20103;-78
2022/09/19 04:59:35;;;;;;;4.72;1.10;;;;;;;5.10;100.00;95502.63;5045903;28;20072;-75
2022/09/19 05:02:02;;;;;;;1.48;1.10;;;;;;;5.17;100.00;95508.50;5040400;28;20042;-76
2022/09/19 05:04:28;;;;;;;1.15;0.90;;;;;;;5.15;100.00;95505.34;5046901;28;20037;-76
2022/09/19 05:06:54;;;;;;;5.32;0.85;;;;;;;5.17;100.00;95508.50;5047942;28;20095;-76
2022/09/19 05:09:22;;;;;;;3.90;1.08;;;;;;;5.14;100.00;95519.41;5048156;28;20560;-76
2022/09/19 05:11:51;;;;;;;4.68;1.40;;;;;;;5.07;100.00;95519.56;5039072;28;20044;-77
2022/09/19 05:14:17;;;;;;;8.05;1.35;;;;;;;5.24;100.00;95530.03;5033590;28;20100;-76
2022/09/19 05:16:43;;;;;;;4.72;1.15;;;;;;;5.18;100.00;95536.19;5047595;28;20040;-77
2022/09/19 05:19:08;;;;;;;7.22;1.20;;;;;;;5.20;100.00;95528.91;5043116;28;20621;-77
2022/09/19 05:21:34;;;;;;;3.63;1.20;;;;;;;5.12;100.00;95537.13;5038512;28;20499;-76
2022/09/19 05:24:00;;;;;;;3.03;1.05;;;;;;;5.16;100.00;95528.59;5043259;28;20127;-76
2022/09/19 05:26:26;;;;;;;7.30;1.58;;;;;;;5.13;100.00;95543.91;5046523;28;20124;-76
2022/09/19 05:28:52;;;;;;;2.67;0.73;;;;;;;5.19;100.00;95543.00;5050344;28;20037;-77
2022/09/19 05:31:19;;;;;;;5.85;1.50;;;;;;;5.31;100.00;95546.31;5042462;28;20064;-76
2022/09/19 05:33:45;;;;;;;5.38;1.15;;;;;;;5.25;100.00;95547.28;5044552;28;20068;-77
2022/09/19 05:36:12;;;;;;;1.85;1.02;;;;;;;5.35;100.00;95550.06;5041081;28;20044;-76
2022/09/19 05:38:38;;;;;;;7.63;1.30;;;;;;;5.28;100.00;95562.44;5046965;28;20041;-77
2022/09/19 05:41:04;;;;;;;3.20;1.23;;;;;;;5.38;100.00;95557.41;5045768;28;20103;-76
2022/09/19 05:43:29;;;;;;;3.20;1.13;;;;;;;5.44;100.00;95565.34;5045294;28;20075;-77
2022/09/19 05:45:56;;;;;;;5.20;1.33;;;;;;;5.48;100.00;95569.84;5049452;28;20029;-77
2022/09/19 05:48:23;;;;;;;4.65;1.48;;;;;;;5.54;100.00;95570.72;5048056;28;20041;-76
2022/09/19 05:50:49;;;;;;;14.23;1.23;;;;;;;5.55;100.00;95577.53;5045524;28;20434;-77
2022/09/19 05:56:01;;;;;;;2.50;0.90;;;;;;;5.65;100.00;95567.25;5037300;28;20037;-76
2022/09/19 05:58:27;;;;;;;3.67;1.00;;;;;;;5.70;100.00;95571.75;5044924;28;20038;-76
2022/09/19 06:00:53;;;;;;;11.23;1.50;;;;;;;5.76;100.00;95577.88;5041113;28;20433;-76
2022/09/19 06:03:22;;;;;;;6.82;1.38;;;;;;;5.78;100.00;95575.81;5038459;28;20107;-76
2022/09/19 06:05:51;;;;;;;9.68;1.58;;;;;;;5.79;100.00;95582.59;5030492;28;20041;-76
2022/09/19 06:08:19;;;;;;;7.82;1.20;;;;;;;5.80;100.00;95574.53;5036187;28;20510;-76
2022/09/19 06:10:46;;;;;;;9.73;1.58;;;;;;;5.87;100.00;95590.06;5037374;28;20040;-76
2022/09/19 06:13:20;;;;;;;6.28;1.38;;;;;;;5.88;100.00;95586.44;5033908;28;20037;-77
2022/09/19 06:15:46;;;;;;;5.40;1.48;;;;;;;5.91;100.00;95591.16;5041407;28;20041;-79
2022/09/19 06:18:12;;;;;;;7.10;1.40;;;;;;;6.01;100.00;95601.81;5044458;28;20065;-76
2022/09/19 06:20:39;;;;;;;6.90;1.58;;;;;;;6.00;100.00;95608.06;5042982;28;20056;-77
2022/09/19 06:23:07;;;;;;;4.10;1.55;;;;;;;6.11;100.00;95616.06;5044615;28;20045;-76
2022/09/19 06:25:35;;;;;;;9.20;1.70;;;;;;;6.14;100.00;95626.03;5039494;28;20112;-76
2022/09/19 06:28:06;;;;;;;6.38;1.48;;;;;;;6.19;100.00;95629.53;5042930;28;20044;-76
2022/09/19 06:30:33;;;;;;;3.97;1.05;;;;;;;6.23;100.00;95635.06;5049170;28;20090;-77
2022/09/19 06:32:59;;;;;;;6.22;1.40;;;;;;;6.26;100.00;95629.34;5047374;28;20045;-76
2022/09/19 06:35:28;;;;;;;6.22;1.35;;;;;;;6.21;100.00;95627.47;5048832;28;20033;-76
2022/09/19 06:38:02;;;;;;;15.98;2.58;;;;;;;6.16;100.00;95643.06;5043407;28;20427;-76
2022/09/19 06:40:29;;;;;;;2.33;1.13;;;;;;;6.16;100.00;95644.88;5041584;28;20094;-76
2022/09/19 06:43:02;;;;;;;4.93;1.88;;;;;;;6.22;100.00;95649.16;5039199;28;20037;-77
2022/09/19 06:45:32;;;;;;;8.52;1.50;;;;;;;6.27;100.00;95651.84;5041352;28;20095;-76
2022/09/19 06:47:59;;;;;;;6.38;1.30;;;;;;;6.30;100.00;95651.38;5042316;28;20048;-76
2022/09/19 06:50:26;;;;;;;7.70;1.70;;;;;;;6.32;100.00;95638.88;5048425;28;20407;-76
2022/09/19 06:52:51;;;;;;;3.25;1.20;;;;;;;6.37;100.00;95657.22;5041066;28;20067;-77
2022/09/19 06:55:18;;;;;;;8.35;1.80;;;;;;;6.32;100.00;95651.13;5047010;28;20491;-77
2022/09/19 06:57:43;;;;;;;6.20;1.65;;;;;;;6.35;100.00;95659.31;5045661;28;20125;-76
2022/09/19 07:00:09;;;;;;;6.20;1.70;;;;;;;6.47;100.00;95656.59;5048259;28;20506;-78
2022/09/19 07:02:36;;;;;;;5.05;1.40;;;;;;;6.54;100.00;95646.75;5040436;28;20037;-78
2022/09/19 07:05:01;;;;;;;7.88;1.50;;;;;;;6.59;100.00;95653.88;5037606;28;20048;-77
2022/09/19 07:07:26;;;;;;;2.20;1.30;;;;;;;6.65;100.00;95663.41;5034963;28;20041;-77
2022/09/19 07:09:52;;;;;;;4.53;1.23;;;;;;;6.72;100.00;95664.03;5043103;28;20447;-77
2022/09/19 07:12:17;;;;;;;3.65;1.40;;;;;;;6.62;100.00;95661.25;5046255;28;20049;-78
2022/09/19 07:14:43;;;;;;;4.63;1.13;;;;;;;6.75;100.00;95668.78;5036418;28;20844;-77
2022/09/19 07:17:08;;;;;;;10.88;1.40;;;;;;;6.65;100.00;95676.47;5042140;28;20041;-76
2022/09/19 07:19:34;;;;;;;2.20;1.00;;;;;;;6.79;100.00;95679.53;5045915;28;20037;-75
2022/09/19 07:22:00;;;;;;;12.55;1.67;;;;;;;6.77;100.00;95676.38;5041103;28;20037;-76
2022/09/19 07:24:25;;;;;;;8.98;1.70;;;;;;;6.72;100.00;95687.56;5046078;28;20466;-76
2022/09/19 07:26:50;;;;;;;4.53;1.30;;;;;;;6.75;100.00;95694.94;5063626;28;20025;-74
2022/09/19 07:29:16;;;;;;;5.07;1.67;;;;;;;6.79;100.00;95694.44;5076899;28;20025;-75
2022/09/19 07:31:42;;;;;;;6.18;1.10;;;;;;;6.83;100.00;95711.25;5073614;28;20055;-74
2022/09/19 07:34:08;;;;;;;7.80;1.65;;;;;;;6.90;100.00;95711.88;5072902;28;20096;-74
2022/09/19 07:36:33;;;;;;;6.68;1.92;;;;;;;6.93;100.00;95708.75;5076386;28;20040;-73
2022/09/19 07:38:59;;;;;;;10.57;1.40;;;;;;;6.87;100.00;95707.13;5071665;28;20029;-76
2022/09/19 07:41:24;;;;;;;3.60;1.23;;;;;;;6.94;100.00;95718.22;5074184;28;20063;-74
2022/09/19 07:43:49;;;;;;;4.68;1.33;;;;;;;7.00;100.00;95725.09;5069323;28;20020;-74
2022/09/19 07:46:17;;;;;;;3.67;0.93;;;;;;;7.08;100.00;95731.72;5069173;28;20080;-73
2022/09/19 07:48:45;;;;;;;7.70;1.25;;;;;;;7.05;100.00;95722.56;5058552;28;20048;-77
2022/09/19 07:51:11;;;;;;;5.00;1.10;;;;;;;7.14;100.00;95737.81;5047489;28;20410;-77
2022/09/19 07:53:37;;;;;;;8.98;1.90;;;;;;;7.33;100.00;95741.75;5048535;28;20047;-76
2022/09/19 07:56:04;;;;;;;6.10;1.30;;;;;;;7.39;100.00;95735.53;5051764;28;20037;-77
2022/09/19 07:58:30;;;;;;;7.75;1.83;;;;;;;7.43;100.00;95734.00;5052231;28;20045;-77
2022/09/19 08:00:59;;;;;;;3.47;1.25;;;;;;;7.57;100.00;95736.25;5045097;28;20091;-76
2022/09/19 08:03:25;;;;;;;9.18;2.20;;;;;;;7.55;100.00;95748.81;5043752;28;20514;-75
2022/09/19 08:05:52;;;;;;;6.97;1.50;;;;;;;7.59;100.00;95740.22;5043272;28;20044;-77
2022/09/19 08:08:20;;;;;;;12.23;1.73;;;;;;;7.62;100.00;95749.44;5049569;28;20045;-77
2022/09/19 08:10:46;;;;;;;4.93;1.17;;;;;;;7.68;100.00;95745.81;5045250;28;20071;-76
2022/09/19 08:13:13;;;;;;;9.75;1.60;;;;;;;7.73;100.00;95756.38;5048133;28;20037;-76
2022/09/19 08:15:39;;;;;;;6.85;2.00;;;;;;;7.87;100.00;95750.75;5050854;28;20048;-77
2022/09/19 08:18:19;;;;;;;5.43;1.75;;;;;;;8.06;100.00;95754.63;5045999;28;20044;-77
2022/09/19 08:20:45;;;;;;;7.40;1.73;;;;;;;8.24;100.00;95768.41;5049552;28;20047;-77
2022/09/19 08:23:13;;;;;;;13.35;2.00;;;;;;;8.20;100.00;95769.94;5049506;28;20037;-77
2022/09/19 08:25:43;;;;;;;3.67;1.50;;;;;;;8.31;100.00;95771.63;5036200;28;20850;-81
2022/09/19 08:28:09;;;;;;;4.35;1.50;;;;;;;8.16;100.00;95772.28;5043923;28;20503;-78
2022/09/19 08:30:35;;;;;;;9.98;1.63;;;;;;;8.15;100.00;95771.47;5045044;28;20042;-77
2022/09/19 08:33:02;;;;;;;10.20;1.83;;;;;;;8.21;100.00;95777.56;5051095;28;20049;-78
2022/09/19 08:35:33;;;;;;;10.68;1.70;;;;;;;8.29;100.00;95773.72;5051627;28;20060;-78
2022/09/19 08:38:00;;;;;;;4.20;1.48;;;;;;;8.27;100.00;95775.78;5050881;28;20051;-79
2022/09/19 08:40:44;;;;;;;9.15;1.90;;;;;;;8.32;100.00;95788.97;5040764;28;20043;-77
2022/09/19 08:43:22;;;;;;;6.22;1.75;;;;;;;8.25;100.00;95783.91;5042266;28;20048;-76
2022/09/19 08:46:27;;;;;;;4.20;1.67;;;;;;;8.13;100.00;95786.69;5037483;28;20079;-77
2022/09/19 08:49:14;;;;;;;8.43;1.77;;;;;;;8.27;100.00;95802.00;5048681;28;20048;-78
2022/09/19 08:52:08;;;;;;;6.78;1.70;;;;;;;8.09;100.00;95793.44;5043459;28;20048;-77
2022/09/19 08:54:40;;;;;;;9.07;2.53;;;;;;;8.22;100.00;95783.63;5046329;28;20118;-77
2022/09/19 08:57:16;;;;;;;10.32;2.17;;;;;;;8.26;100.00;95795.97;5043252;28;20037;-77
2022/09/19 08:59:43;;;;;;;5.70;1.50;;;;;;;8.37;100.00;95789.00;5048699;28;20053;-78
2022/09/19 09:02:26;;;;;;;6.20;1.60;;;;;;;8.55;100.00;95789.69;5046274;28;20140;-77
2022/09/19 09:04:54;;;;;;;6.60;1.70;;;;;;;8.68;100.00;95791.94;5041733;28;20045;-76
2022/09/19 09:07:32;;;;;;;3.17;1.25;;;;;;;8.86;100.00;95797.84;5048475;28;20499;-77
2022/09/19 09:10:10;;;;;;;4.47;1.30;;;;;;;8.80;100.00;95789.91;5039711;28;20046;-77
2022/09/19 09:12:44;;;;;;;5.72;1.70;;;;;;;9.00;100.00;95799.78;5034159;28;20515;-76
2022/09/19 09:15:40;;;;;;;5.50;1.90;;;;;;;8.91;100.00;95801.28;5041408;28;20043;-77
2022/09/19 09:18:15;;;;;;;7.45;1.38;;;;;;;8.79;100.00;95803.28;5042985;28;20111;-76
2022/09/19 09:20:55;;;;;;;7.70;1.60;;;;;;;8.74;100.00;95801.41;5037407;28;20075;-77
2022/09/19 09:23:26;;;;;;;5.70;1.33;;;;;;;9.00;100.00;95793.75;5045844;28;20052;-76
2022/09/19 09:26:12;;;;;;;5.40;2.10;;;;;;;9.09;100.00;95797.47;5050034;28;20041;-76
2022/09/19 09:28:42;;;;;;;5.82;1.55;;;;;;;9.27;100.00;95800.75;5045174;28;20567;-79
2022/09/19 09:31:54;;;;;;;5.22;2.30;;;;;;;9.47;100.00;95800.88;5042651;28;20528;-81
2022/09/19 09:34:43;;;;;;;4.70;1.55;;;;;;;9.62;100.00;95799.38;5041043;28;20135;-77
2022/09/19 09:37:19;;;;;;;3.47;1.73;;;;;;;9.81;100.00;95797.06;5044437;28;20098;-75
2022/09/19 09:39:59;;;;;;;6.88;1.30;;;;;;;9.69;100.00;95797.28;5040815;28;20045;-75
2022/09/19 09:42:37;;;;;;;5.15;1.85;;;;;;;9.64;100.00;95798.06;5030866;28;20092;-76
2022/09/19 09:45:22;;;;;;;3.42;1.45;;;;;;;9.59;100.00;95802.50;5044086;28;20029;-75
2022/09/19 09:48:15;;;;;;;5.85;1.35;;;;;;;9.54;100.00;95808.53;5035134;28;20148;-76
2022/09/19 09:51:00;;;;;;;4.75;1.38;;;;;;;9.84;100.00;95807.88;5047082;28;20091;-84
2022/09/19 09:53:31;;;;;;;5.60;1.42;;;;;;;9.98;100.00;95812.66;5046977;28;20039;-77
2022/09/19 09:56:17;;;;;;;1.33;0.90;;;;;;;10.23;100.00;95815.38;5041954;28;20034;-77
2022/09/19 09:59:01;;;;;;;2.78;1.15;;;;;;;10.05;100.00;95808.72;5042659;28;20038;-77
2022/09/19 10:05:01;;;;;;;3.05;1.15;;;;;;;10.11;100.00;95812.16;5041608;28;20045;-78
2022/09/19 10:07:58;;;;;;;7.90;2.03;;;;;;;9.80;100.00;95806.03;5041294;28;20045;-76
2022/09/19 10:10:26;;;;;;;1.98;1.10;;;;;;;10.29;100.00;95818.78;5040211;28;20113;-75
2022/09/19 10:13:25;;;;;;;5.43;1.63;;;;;;;10.21;100.00;95814.84;5051168;28;20049;-76
2022/09/19 10:15:55;;;;;;;4.65;1.25;;;;;;;10.20;100.00;95812.44;5044368;28;20055;-77
2022/09/19 10:18:24;;;;;;;5.20;1.63;;;;;;;10.48;100.00;95805.97;5040994;28;20210;-78
2022/09/19 10:20:52;;;;;;;5.82;1.50;;;;;;;10.40;100.00;95807.28;5034945;28;20047;-76
2022/09/19 10:23:23;;;;;;;3.38;1.33;;;;;;;10.35;100.00;95811.75;5044922;28;20048;-77
2022/09/19 10:25:50;;;;;;;6.45;1.48;;;;;;;10.36;100.00;95808.84;5042228;28;20041;-77
2022/09/19 10:28:24;;;;;;;5.97;1.55;;;;;;;10.66;100.00;95811.78;5046548;28;20066;-77
2022/09/19 10:30:59;;;;;;;3.58;1.35;;;;;;;11.03;100.00;95816.00;5039897;28;20101;-77
2022/09/19 10:33:47;;;;;;;3.22;1.35;;;;;;;10.77;100.00;95813.38;5038999;28;20048;-75
2022/09/19 10:36:16;;;;;;;7.57;1.80;;;;;;;10.93;100.00;95819.41;5048881;28;20106;-76
2022/09/19 10:38:58;;;;;;;3.85;1.48;;;;;;;10.97;100.00;95811.81;5036381;28;20507;-76
2022/09/19 10:41:27;;;;;;;6.10;1.60;;;;;;;10.77;100.00;95818.63;5046226;28;20045;-77
2022/09/19 10:43:59;;;;;;;4.65;1.63;;;;;;;10.53;100.00;95813.88;5044379;28;20116;-75
2022/09/19 10:46:34;;;;;;;5.45;1.98;;;;;;;10.63;100.00;95812.31;5043976;28;20049;-76
2022/09/19 10:48:59;;;;;;;10.18;1.60;;;;;;;10.65;100.00;95810.22;5042907;28;20052;-75
2022/09/19 10:51:34;;;;;;;3.33;1.50;;;;;;;10.53;100.00;95808.63;5041155;28;20120;-76
2022/09/19 10:54:11;;;;;;;7.03;1.90;;;;;;;10.67;100.00;95808.09;5043366;28;20688;-75
2022/09/19 10:56:39;;;;;;;7.05;1.30;;;;;;;10.79;100.00;95811.28;5037578;28;20052;-75
2022/09/19 10:59:24;;;;;;;7.97;1.48;;;;;;;10.68;100.00;95810.47;5044388;28;20048;-76
2022/09/19 11:02:26;;;;;;;7.53;1.50;;;;;;;10.61;100.00;95806.53;5035416;28;20050;-76
2022/09/19 11:05:00;;;;;;;4.28;1.27;;;;;;;10.77;100.00;95802.84;5032749;28;20037;-75
2022/09/19 11:07:29;;;;;;;;;;;;;;;10.88;100.00;95814.94;5047588;28;20051;-75
2022/09/19 11:09:59;;;;;;;3.40;1.35;;;;;;;10.92;100.00;95815.22;5047447;28;19939;-74
2022/09/19 11:12:31;;;;;;;3.63;1.08;;;;;;;10.63;100.00;95801.78;5042809;28;20073;-75
2022/09/19 11:14:58;;;;;;;2.75;1.25;;;;;;;10.88;100.00;95804.41;5044846;28;20097;-77
2022/09/19 11:17:49;;;;;;;4.95;1.20;;;;;;;10.82;100.00;95813.38;5033010;28;20538;-76
2022/09/19 11:20:33;;;;;;;1.13;0.93;;;;;;;10.78;100.00;95809.69;5032109;28;20040;-75
2022/09/19 11:23:17;;;;;;;7.60;1.40;;;;;;;11.31;100.00;95817.31;5042445;28;20469;-75
2022/09/19 11:26:14;;;;;;;1.97;1.20;;;;;;;10.96;100.00;95811.03;5037258;28;20040;-75
2022/09/19 11:28:53;;;;;;;5.00;1.58;;;;;;;11.24;100.00;95811.50;5048176;28;20756;-74
2022/09/19 11:31:41;;;;;;;5.93;1.58;;;;;;;11.17;100.00;95811.78;5034723;28;20096;-75
2022/09/19 11:34:31;;;;;;;4.35;1.60;;;;;;;11.40;100.00;95814.91;5030792;28;20033;-78
2022/09/19 11:37:10;;;;;;;3.17;1.38;;;;;;;11.64;100.00;95814.31;5042435;28;20426;-75
2022/09/19 11:40:13;;;;;;;3.63;1.40;;;;;;;11.69;100.00;95814.31;5047050;28;20441;-75
2022/09/19 11:43:09;;;;;;;2.55;1.40;;;;;;;11.51;100.00;95811.19;5039212;28;20037;-74
2022/09/19 11:46:15;;;;;;;3.80;1.10;;;;;;;11.55;100.00;95816.72;5040906;28;20486;-75
2022/09/19 11:49:19;;;;;;;3.45;1.38;;;;;;;11.39;100.00;95808.06;5040998;28;20041;-75
2022/09/19 11:51:51;;;;;;;7.75;1.42;;;;;;;11.30;100.00;95809.66;5036684;28;20044;-75
2022/09/19 11:54:33;;;;;;;4.03;1.38;;;;;;;11.30;100.00;95807.03;5044286;28;20048;-74
2022/09/19 11:57:33;;;;;;;7.93;1.48;;;;;;;11.09;100.00;95799.13;5038704;28;20049;-74
2022/09/19 12:00:10;;;;;;;6.68;1.50;;;;;;;11.13;100.00;95805.44;5033758;28;20048;-75
2022/09/19 12:02:38;;;;;;;4.65;1.35;;;;;;;11.03;100.00;95806.28;5039102;28;20036;-75
2022/09/19 12:05:35;;;;;;;6.90;1.42;;;;;;;11.06;100.00;95799.66;5043642;28;20048;-74
2022/09/19 12:08:18;;;;;;;5.15;1.73;;;;;;;11.02;100.00;95801.25;5047445;28;20108;-75
2022/09/19 12:10:51;;;;;;;7.05;1.92;;;;;;;11.27;100.00;95793.31;5038141;28;20501;-75